createdAt,value
2018-12-08T00:01:16.717Z,96.60
2018-12-08T00:03:53.325Z,96.60
2018-12-08T00:06:30.073Z,96.60
2018-12-08T00:09:07.491Z,96.60
2018-12-08T00:11:44.010Z,96.60
2018-12-08T00:14:24.737Z,96.60
2018-12-08T00:16:59.531Z,96.60
2018-12-08T00:27:06.888Z,96.50
2018-12-08T00:29:42.087Z,96.50
2018-12-08T00:32:16.700Z,96.50
2018-12-08T00:34:52.193Z,96.50
2018-12-08T00:37:29.069Z,96.50
2018-12-08T00:40:06.893Z,96.40
2018-12-08T00:42:42.205Z,96.40
2018-12-08T00:45:18.928Z,96.40
2018-12-08T00:47:55.752Z,96.40
2018-12-08T00:50:36.254Z,96.40
2018-12-08T00:53:11.675Z,96.40
2018-12-08T00:55:47.281Z,96.30
2018-12-08T00:58:22.245Z,96.30
2018-12-08T01:00:57.210Z,96.30
2018-12-08T01:03:31.670Z,96.30
2018-12-08T01:06:07.928Z,96.30
2018-12-08T01:08:44.207Z,96.30
2018-12-08T01:11:19.863Z,96.30
2018-12-08T01:13:53.741Z,96.30
2018-12-08T01:16:29.603Z,96.30
2018-12-08T01:19:04.840Z,96.20
2018-12-08T01:24:54.345Z,96.20
2018-12-08T01:27:30.495Z,96.20
2018-12-08T01:30:08.236Z,96.20
2018-12-08T01:32:42.793Z,96.20
2018-12-08T01:35:19.659Z,96.20
2018-12-08T01:37:57.806Z,96.20
2018-12-08T01:40:35.612Z,96.20
2018-12-08T01:43:12.280Z,96.20
2018-12-08T01:45:45.484Z,96.20
2018-12-08T01:48:23.640Z,96.20
2018-12-08T01:50:59.876Z,96.20
2018-12-08T01:53:33.872Z,96.20
2018-12-08T01:56:10.526Z,96.20
2018-12-08T01:58:59.859Z,96.20
2018-12-08T02:01:34.376Z,96.20
2018-12-08T02:04:11.372Z,96.20
2018-12-08T02:06:46.550Z,96.20
2018-12-08T02:09:23.106Z,96.10
2018-12-08T02:12:00.348Z,96.20
2018-12-08T02:14:34.717Z,96.10
2018-12-08T02:17:09.778Z,96.20
2018-12-08T02:19:46.876Z,96.20
2018-12-08T02:22:23.887Z,96.10
2018-12-08T02:25:00.748Z,96.10
2018-12-08T02:27:37.167Z,96.10
2018-12-08T02:30:12.263Z,96.10
2018-12-08T02:32:49.098Z,96.10
2018-12-08T02:35:26.092Z,96.00
2018-12-08T02:38:02.580Z,96.10
2018-12-08T02:40:38.065Z,96.00
2018-12-08T02:43:15.281Z,96.00
2018-12-08T02:45:52.264Z,96.00
2018-12-08T02:48:29.196Z,96.00
2018-12-08T02:51:04.876Z,96.00
2018-12-08T02:53:38.835Z,96.00
2018-12-08T02:56:14.935Z,96.00
2018-12-08T02:58:48.374Z,96.00
2018-12-08T03:01:24.852Z,96.00
2018-12-08T03:03:59.491Z,96.00
2018-12-08T03:06:35.521Z,95.90
2018-12-08T03:09:11.487Z,95.90
2018-12-08T03:11:47.958Z,95.90
2018-12-08T03:14:37.428Z,95.90
2018-12-08T03:17:16.584Z,95.90
2018-12-08T03:19:51.469Z,95.90
2018-12-08T03:22:29.046Z,95.80
2018-12-08T03:25:03.457Z,95.80
2018-12-08T03:27:39.015Z,95.80
2018-12-08T03:30:14.328Z,95.80
2018-12-08T03:32:49.306Z,95.70
2018-12-08T03:35:24.007Z,95.70
2018-12-08T03:37:59.297Z,95.70
2018-12-08T03:40:38.075Z,95.70
2018-12-08T03:43:15.023Z,95.70
2018-12-08T03:45:51.925Z,95.70
2018-12-08T03:48:28.764Z,95.70
2018-12-08T03:51:05.560Z,95.60
2018-12-08T03:53:40.931Z,95.60
2018-12-08T03:56:14.731Z,95.60
2018-12-08T03:58:50.316Z,95.60
2018-12-08T04:01:24.488Z,95.60
2018-12-08T04:04:01.384Z,95.60
2018-12-08T04:06:39.007Z,95.60
2018-12-08T04:09:13.648Z,95.60
2018-12-08T04:14:41.535Z,95.60
2018-12-08T04:17:16.861Z,95.50
2018-12-08T04:19:52.748Z,95.60
2018-12-08T04:22:29.849Z,95.50
2018-12-08T04:25:04.200Z,95.50
2018-12-08T04:27:41.529Z,95.50
2018-12-08T04:30:16.739Z,95.50
2018-12-08T04:32:53.389Z,95.50
2018-12-08T04:35:30.576Z,95.50
2018-12-08T04:38:05.495Z,95.50
2018-12-08T04:40:42.306Z,95.40
2018-12-08T04:43:18.916Z,95.40
2018-12-08T04:45:54.071Z,95.40
2018-12-08T04:48:30.943Z,95.40
2018-12-08T04:51:07.612Z,95.40
2018-12-08T04:53:46.617Z,95.40
2018-12-08T04:56:23.183Z,95.30
2018-12-08T04:59:02.489Z,95.30
2018-12-08T05:01:36.372Z,95.30
2018-12-08T05:04:12.992Z,95.30
2018-12-08T05:06:48.734Z,95.30
2018-12-08T05:15:26.862Z,95.30
2018-12-08T05:18:03.258Z,95.30
2018-12-08T05:20:40.007Z,95.20
2018-12-08T05:23:17.088Z,95.30
2018-12-08T05:25:53.586Z,95.30
2018-12-08T05:28:30.562Z,95.20
2018-12-08T05:31:07.560Z,95.30
2018-12-08T05:33:48.262Z,95.20
2018-12-08T05:36:24.707Z,95.20
2018-12-08T05:39:00.528Z,95.20
2018-12-08T05:41:34.528Z,95.20
2018-12-08T05:44:10.263Z,95.20
2018-12-08T05:46:46.834Z,95.20
2018-12-08T05:49:20.835Z,95.20
2018-12-08T05:51:55.179Z,95.20
2018-12-08T05:54:30.775Z,95.20
2018-12-08T05:57:05.000Z,95.20
2018-12-08T05:59:41.247Z,95.20
2018-12-08T06:02:17.473Z,95.20
2018-12-08T06:04:54.869Z,95.20
2018-12-08T06:07:26.537Z,95.20
2018-12-08T06:10:03.325Z,95.20
2018-12-08T06:12:40.082Z,95.10
2018-12-08T06:15:15.213Z,95.10
2018-12-08T06:17:52.347Z,95.20
2018-12-08T06:20:29.457Z,95.10
2018-12-08T06:23:06.477Z,95.10
2018-12-08T06:25:42.945Z,95.10
2018-12-08T06:28:26.495Z,95.10
2018-12-08T06:31:01.458Z,95.10
2018-12-08T06:33:38.428Z,95.10
2018-12-08T06:36:14.745Z,95.10
2018-12-08T06:38:51.498Z,95.10
2018-12-08T06:41:26.165Z,95.10
2018-12-08T06:44:03.291Z,95.00
2018-12-08T06:46:37.975Z,95.10
2018-12-08T06:49:15.227Z,95.00
2018-12-08T06:51:50.334Z,95.00
2018-12-08T06:54:26.815Z,95.00
2018-12-08T06:57:03.674Z,95.00
2018-12-08T06:59:40.077Z,95.00
2018-12-08T07:02:16.485Z,95.00
2018-12-08T07:04:52.191Z,95.00
2018-12-08T07:07:26.081Z,95.00
2018-12-08T07:10:02.169Z,95.00
2018-12-08T07:12:38.667Z,95.00
2018-12-08T07:15:21.803Z,95.00
2018-12-08T07:17:59.021Z,95.00
2018-12-08T07:20:35.947Z,95.00
2018-12-08T07:23:12.737Z,95.00
2018-12-08T07:25:47.417Z,95.10
2018-12-08T07:28:25.305Z,95.10
2018-12-08T07:30:59.995Z,95.10
2018-12-08T07:33:40.559Z,95.10
2018-12-08T07:36:17.419Z,95.10
2018-12-08T07:38:54.457Z,95.10
2018-12-08T07:41:28.506Z,95.10
2018-12-08T07:44:03.953Z,95.10
2018-12-08T07:46:40.931Z,95.40
2018-12-08T07:49:17.575Z,95.10
2018-12-08T07:51:53.643Z,95.00
2018-12-08T07:54:29.224Z,95.40
2018-12-08T07:57:05.743Z,95.00
2018-12-08T07:59:41.788Z,95.00
2018-12-08T08:05:10.399Z,94.90
2018-12-08T08:07:47.266Z,94.90
2018-12-08T08:10:21.962Z,94.90
2018-12-08T08:12:57.136Z,94.90
2018-12-08T08:15:32.296Z,94.80
2018-12-08T08:18:08.774Z,94.80
2018-12-08T08:20:45.433Z,94.70
2018-12-08T08:23:22.088Z,94.80
2018-12-08T08:25:56.934Z,94.70
2018-12-08T08:28:34.322Z,94.70
2018-12-08T08:31:09.815Z,94.70
2018-12-08T08:33:47.008Z,94.70
2018-12-08T08:36:23.876Z,94.70
2018-12-08T08:39:00.578Z,94.70
2018-12-08T08:41:34.996Z,94.70
2018-12-08T08:44:10.611Z,94.70
2018-12-08T08:46:45.746Z,94.70
2018-12-08T08:49:22.771Z,94.70
2018-12-08T08:51:57.408Z,94.60
2018-12-08T08:54:34.284Z,94.70
2018-12-08T08:57:10.756Z,94.60
2018-12-08T08:59:46.420Z,94.60
2018-12-08T09:02:20.328Z,94.70
2018-12-08T09:04:56.554Z,94.70
2018-12-08T09:07:30.726Z,95.00
2018-12-08T09:10:08.564Z,95.00
2018-12-08T09:12:42.568Z,94.60
2018-12-08T09:15:17.742Z,94.70
2018-12-08T09:17:53.401Z,94.70
2018-12-08T09:20:28.273Z,94.70
2018-12-08T09:23:05.857Z,94.70
2018-12-08T09:25:40.432Z,94.70
2018-12-08T09:28:15.672Z,94.70
2018-12-08T09:30:55.952Z,94.70
2018-12-08T09:33:31.596Z,94.70
2018-12-08T09:36:08.954Z,94.70
2018-12-08T09:38:43.974Z,94.70
2018-12-08T09:41:18.471Z,94.70
2018-12-08T09:43:53.415Z,94.70
2018-12-08T09:46:28.479Z,94.70
2018-12-08T09:49:03.190Z,94.70
2018-12-08T09:51:39.861Z,94.70
2018-12-08T09:54:15.105Z,94.70
2018-12-08T09:56:50.397Z,94.70
2018-12-08T09:59:26.160Z,94.70
2018-12-08T10:02:02.158Z,94.80
2018-12-08T10:04:39.542Z,94.80
2018-12-08T10:07:16.623Z,94.80
2018-12-08T10:09:51.676Z,94.80
2018-12-08T10:12:28.047Z,94.80
2018-12-08T10:15:04.973Z,94.80
2018-12-08T10:17:41.775Z,94.80
2018-12-08T10:20:17.731Z,94.80
2018-12-08T10:22:51.690Z,94.90
2018-12-08T10:25:27.384Z,94.90
2018-12-08T10:28:03.666Z,94.90
2018-12-08T10:30:39.515Z,94.90
2018-12-08T10:33:15.495Z,94.90
2018-12-08T10:35:51.173Z,94.90
2018-12-08T10:38:27.128Z,94.90
2018-12-08T10:41:02.716Z,95.00
2018-12-08T10:43:39.891Z,95.00
2018-12-08T10:46:17.233Z,95.00
2018-12-08T10:48:54.073Z,95.00
2018-12-08T10:51:34.818Z,95.00
2018-12-08T10:54:09.635Z,95.00
2018-12-08T10:56:51.652Z,95.00
2018-12-08T10:59:28.535Z,95.00
2018-12-08T11:02:09.165Z,95.10
2018-12-08T11:04:44.621Z,95.10
2018-12-08T11:07:22.523Z,95.10
2018-12-08T11:10:00.055Z,95.10
2018-12-08T11:12:38.125Z,95.10
2018-12-08T11:15:16.031Z,95.10
2018-12-08T11:17:51.823Z,95.10
2018-12-08T11:20:27.297Z,95.10
2018-12-08T11:23:03.919Z,95.10
2018-12-08T11:25:39.363Z,95.10
2018-12-08T11:28:15.580Z,95.10
2018-12-08T11:30:54.947Z,95.10
2018-12-08T11:33:31.423Z,95.10
2018-12-08T11:36:08.183Z,95.10
2018-12-08T11:38:42.653Z,95.10
2018-12-08T11:41:15.967Z,95.10
2018-12-08T11:43:51.569Z,95.10
2018-12-08T11:46:28.371Z,95.10
2018-12-08T11:49:04.679Z,95.10
2018-12-08T11:51:41.062Z,95.10
2018-12-08T11:54:17.464Z,95.20
2018-12-08T11:56:55.385Z,95.20
2018-12-08T11:59:33.085Z,95.10
2018-12-08T12:02:16.453Z,95.20
2018-12-08T12:04:48.791Z,95.20
2018-12-08T12:07:26.187Z,95.20
2018-12-08T12:10:15.172Z,95.20
2018-12-08T12:12:51.072Z,95.20
2018-12-08T12:15:28.016Z,95.30
2018-12-08T12:18:02.745Z,95.30
2018-12-08T12:20:39.550Z,95.30
2018-12-08T12:23:20.484Z,95.30
2018-12-08T12:25:55.770Z,95.40
2018-12-08T12:28:30.524Z,95.40
2018-12-08T12:31:09.101Z,95.40
2018-12-08T12:33:44.919Z,95.40
2018-12-08T12:36:20.324Z,95.40
2018-12-08T12:38:56.751Z,95.40
2018-12-08T12:41:34.738Z,95.50
2018-12-08T12:44:08.521Z,95.40
2018-12-08T12:46:42.535Z,95.50
2018-12-08T12:49:17.794Z,95.50
2018-12-08T12:54:46.150Z,95.50
2018-12-08T12:57:18.800Z,95.50
2018-12-08T12:59:56.651Z,95.50
2018-12-08T13:02:36.732Z,95.50
2018-12-08T13:05:11.410Z,95.50
2018-12-08T13:07:46.552Z,95.60
2018-12-08T13:10:24.028Z,95.60
2018-12-08T13:12:58.634Z,95.60
2018-12-08T13:15:36.134Z,95.60
2018-12-08T13:18:11.204Z,95.60
2018-12-08T13:20:47.322Z,95.60
2018-12-08T13:23:23.200Z,95.60
2018-12-08T13:25:58.549Z,96.00
2018-12-08T13:28:33.268Z,95.60
2018-12-08T13:31:08.990Z,95.60
2018-12-08T13:33:46.384Z,95.60
2018-12-08T13:36:23.374Z,95.60
2018-12-08T13:39:00.047Z,95.60
2018-12-08T13:41:36.008Z,95.60
2018-12-08T13:44:18.640Z,95.60
2018-12-08T13:47:05.459Z,95.60
2018-12-08T13:49:38.586Z,95.60
2018-12-08T13:52:14.526Z,95.60
2018-12-08T13:54:52.434Z,95.60
2018-12-08T13:57:30.053Z,95.50
2018-12-08T14:00:08.809Z,95.50
2018-12-08T14:02:45.329Z,95.50
2018-12-08T14:05:21.394Z,95.50
2018-12-08T14:07:56.529Z,95.50
2018-12-08T14:10:33.377Z,95.50
2018-12-08T14:13:10.229Z,95.50
2018-12-08T14:15:45.360Z,95.50
2018-12-08T14:18:22.442Z,95.50
2018-12-08T14:20:58.595Z,95.50
2018-12-08T14:23:34.390Z,95.50
2018-12-08T14:26:11.484Z,95.50
2018-12-08T14:28:48.028Z,95.50
2018-12-08T14:31:31.090Z,95.90
2018-12-08T14:34:08.963Z,95.50
2018-12-08T14:36:46.362Z,95.50
2018-12-08T14:39:24.363Z,95.50
2018-12-08T14:42:02.073Z,95.60
2018-12-08T14:44:39.684Z,95.60
2018-12-08T14:47:17.659Z,95.60
2018-12-08T14:49:55.456Z,95.50
2018-12-08T14:52:32.742Z,95.60
2018-12-08T14:55:11.358Z,95.60
2018-12-08T14:57:48.331Z,95.60
2018-12-08T15:00:23.931Z,95.60
2018-12-08T15:02:59.839Z,95.60
2018-12-08T15:05:36.119Z,95.60
2018-12-08T15:08:13.565Z,95.60
2018-12-08T15:10:50.488Z,95.60
2018-12-08T15:13:25.409Z,95.70
2018-12-08T15:16:16.121Z,95.70
2018-12-08T15:18:53.143Z,95.70
2018-12-08T15:21:29.099Z,95.70
2018-12-08T15:24:06.771Z,95.70
2018-12-08T15:26:45.005Z,95.70
2018-12-08T15:29:21.034Z,95.70
2018-12-08T15:31:58.187Z,95.80
2018-12-08T15:34:36.207Z,95.80
2018-12-08T15:37:13.903Z,95.80
2018-12-08T15:39:52.121Z,95.80
2018-12-08T15:42:29.911Z,95.80
2018-12-08T15:45:08.714Z,95.80
2018-12-08T15:47:45.778Z,95.80
2018-12-08T15:50:21.035Z,95.80
2018-12-08T15:52:56.641Z,95.80
2018-12-08T15:55:36.075Z,95.80
2018-12-08T15:58:12.477Z,95.80
2018-12-08T16:00:49.212Z,95.80
2018-12-08T16:03:26.470Z,95.80
2018-12-08T16:06:01.480Z,95.80
2018-12-08T16:08:36.702Z,95.80
2018-12-08T16:11:12.918Z,95.80
2018-12-08T16:13:50.488Z,95.80
2018-12-08T16:16:25.924Z,95.80
2018-12-08T16:18:59.582Z,95.90
2018-12-08T16:21:34.300Z,95.80
2018-12-08T16:24:07.396Z,95.90
2018-12-08T16:27:02.137Z,95.90
2018-12-08T16:29:39.690Z,95.80
2018-12-08T16:32:16.934Z,95.80
2018-12-08T16:34:52.713Z,95.90
2018-12-08T16:37:41.312Z,95.80
2018-12-08T16:40:18.189Z,95.80
2018-12-08T16:42:59.551Z,95.90
2018-12-08T16:45:36.439Z,95.80
2018-12-08T16:48:11.457Z,95.80
2018-12-08T16:50:48.301Z,95.90
2018-12-08T16:53:26.994Z,95.80
2018-12-08T16:56:02.614Z,95.80
2018-12-08T16:58:42.375Z,96.10
2018-12-08T17:01:17.966Z,95.90
2018-12-08T17:03:55.026Z,95.90
2018-12-08T17:06:31.056Z,95.90
2018-12-08T17:09:06.364Z,95.90
2018-12-08T17:11:40.242Z,95.90
2018-12-08T17:14:14.094Z,95.90
2018-12-08T17:16:50.434Z,96.20
2018-12-08T17:19:27.412Z,95.90
2018-12-08T17:22:03.646Z,96.00
2018-12-08T17:24:40.614Z,95.90
2018-12-08T17:27:15.440Z,95.90
2018-12-08T17:29:51.096Z,95.90
2018-12-08T17:32:28.036Z,95.90
2018-12-08T17:35:03.074Z,95.90
2018-12-08T17:37:38.232Z,96.30
2018-12-08T17:40:16.402Z,95.90
2018-12-08T17:42:54.326Z,95.90
2018-12-08T17:45:31.440Z,95.90
2018-12-08T17:48:06.967Z,96.00
2018-12-08T17:50:42.412Z,96.00
2018-12-08T17:53:19.712Z,96.00
2018-12-08T17:55:56.971Z,96.00
2018-12-08T17:58:34.380Z,96.00
2018-12-08T18:01:12.535Z,96.00
2018-12-08T18:03:50.257Z,96.00
2018-12-08T18:06:24.279Z,96.10
2018-12-08T18:09:02.433Z,96.10
2018-12-08T18:11:39.811Z,96.10
2018-12-08T18:14:17.428Z,96.10
2018-12-08T18:16:54.250Z,96.10
2018-12-08T18:19:29.924Z,96.10
2018-12-08T18:22:05.306Z,96.20
2018-12-08T18:24:41.080Z,96.20
2018-12-08T18:27:19.409Z,96.20
2018-12-08T18:29:56.675Z,96.20
2018-12-08T18:32:32.746Z,96.20
2018-12-08T18:35:08.535Z,96.20
2018-12-08T18:37:43.689Z,96.30
2018-12-08T18:40:20.796Z,96.30
2018-12-08T18:42:56.511Z,96.30
2018-12-08T18:45:32.531Z,96.30
2018-12-08T18:48:10.192Z,96.30
2018-12-08T18:50:47.150Z,96.40
2018-12-08T18:53:24.369Z,96.40
2018-12-08T18:56:02.235Z,96.40
2018-12-08T18:58:37.801Z,96.40
2018-12-08T19:01:13.825Z,96.50
2018-12-08T19:03:51.084Z,96.80
2018-12-08T19:06:25.426Z,96.50
2018-12-08T19:09:04.391Z,96.90
2018-12-08T19:11:42.949Z,96.50
2018-12-08T19:14:20.771Z,96.60
2018-12-08T19:16:58.438Z,96.60
2018-12-08T19:19:35.575Z,96.60
2018-12-08T19:22:14.402Z,96.60
2018-12-08T19:24:51.389Z,96.60
2018-12-08T19:27:27.216Z,96.70
2018-12-08T19:30:03.820Z,96.70
2018-12-08T19:32:40.206Z,96.70
2018-12-08T19:35:14.780Z,96.70
2018-12-08T19:37:51.622Z,96.70
2018-12-08T19:40:28.572Z,97.00
2018-12-08T19:43:07.508Z,96.70
2018-12-08T19:45:42.220Z,96.70
2018-12-08T19:48:17.359Z,96.70
2018-12-08T19:50:56.125Z,96.70
2018-12-08T19:53:33.742Z,96.70
2018-12-08T19:56:15.042Z,96.70
2018-12-08T19:58:52.778Z,96.80
2018-12-08T20:01:28.672Z,96.80
2018-12-08T20:04:06.435Z,96.80
2018-12-08T20:06:44.246Z,96.80
2018-12-08T20:09:24.270Z,96.80
2018-12-08T20:12:01.245Z,96.80
2018-12-08T20:14:39.039Z,96.90
2018-12-08T20:17:15.228Z,96.90
2018-12-08T20:19:51.152Z,96.90
2018-12-08T20:22:28.588Z,96.90
2018-12-08T20:25:07.332Z,96.90
2018-12-08T20:27:45.938Z,96.90
2018-12-08T20:30:22.262Z,97.00
2018-12-08T20:32:57.795Z,97.00
2018-12-08T20:35:32.031Z,97.00
2018-12-08T20:38:06.656Z,97.10
2018-12-08T20:40:43.758Z,97.10
2018-12-08T20:43:21.298Z,97.10
2018-12-08T20:45:58.236Z,97.10
2018-12-08T20:48:34.538Z,97.20
2018-12-08T20:51:11.928Z,97.20
2018-12-08T20:53:47.266Z,97.20
2018-12-08T20:56:23.199Z,97.20
2018-12-08T20:59:00.955Z,97.20
2018-12-08T21:01:38.662Z,97.30
2018-12-08T21:04:12.976Z,97.20
2018-12-08T21:06:50.898Z,97.60
2018-12-08T21:09:27.190Z,97.20
2018-12-08T21:12:03.155Z,97.30
2018-12-08T21:14:40.750Z,97.20
2018-12-08T21:17:18.619Z,97.20
2018-12-08T21:19:54.226Z,97.30
2018-12-08T21:22:32.976Z,97.30
2018-12-08T21:25:10.080Z,97.30
2018-12-08T21:27:47.606Z,97.30
2018-12-08T21:30:25.717Z,97.40
2018-12-08T21:33:02.281Z,97.40
2018-12-08T21:35:39.435Z,97.40
2018-12-08T21:38:16.396Z,97.50
2018-12-08T21:40:52.328Z,97.50
2018-12-08T21:43:27.902Z,97.50
2018-12-08T21:46:02.092Z,97.50
2018-12-08T21:48:38.260Z,97.60
2018-12-08T21:51:16.128Z,97.60
2018-12-08T21:53:53.221Z,97.70
2018-12-08T21:56:29.355Z,97.70
2018-12-08T21:59:05.725Z,97.80
2018-12-08T22:01:42.266Z,97.80
2018-12-08T22:04:13.823Z,97.80
2018-12-08T22:06:52.741Z,97.80
2018-12-08T22:09:31.774Z,97.80
2018-12-08T22:12:08.252Z,97.90
2018-12-08T22:14:48.213Z,97.90
2018-12-08T22:17:24.075Z,98.00
2018-12-08T22:20:03.239Z,98.00
2018-12-08T22:22:38.568Z,98.00
2018-12-08T22:25:16.725Z,98.00
2018-12-08T22:27:54.025Z,98.00
2018-12-08T22:30:29.950Z,98.00
2018-12-08T22:33:06.663Z,98.00
2018-12-08T22:35:41.974Z,98.00
2018-12-08T22:38:18.727Z,98.00
2018-12-08T22:40:54.577Z,98.00
2018-12-08T22:43:31.669Z,97.90
2018-12-08T22:46:05.003Z,97.90
2018-12-08T22:48:40.745Z,97.90
2018-12-08T22:51:13.907Z,97.90
2018-12-08T22:53:51.941Z,97.90
2018-12-08T22:56:26.069Z,97.90
2018-12-08T22:59:01.882Z,97.90
2018-12-08T23:01:37.462Z,97.90
2018-12-08T23:04:12.913Z,98.00
2018-12-08T23:06:56.342Z,97.90
2018-12-08T23:09:33.125Z,98.00
2018-12-08T23:12:07.939Z,98.00
2018-12-08T23:14:45.799Z,98.00
2018-12-08T23:17:20.732Z,97.90
2018-12-08T23:19:55.996Z,98.00
2018-12-08T23:22:33.473Z,97.90
2018-12-08T23:25:10.503Z,97.90
2018-12-08T23:27:44.879Z,97.90
2018-12-08T23:30:22.064Z,97.90
2018-12-08T23:32:56.629Z,97.90
2018-12-08T23:35:31.879Z,97.90
2018-12-08T23:38:08.320Z,97.80
2018-12-08T23:40:45.425Z,97.80
2018-12-08T23:43:20.472Z,97.80
2018-12-08T23:45:55.076Z,97.80
2018-12-08T23:48:31.879Z,97.70
2018-12-08T23:51:08.503Z,97.70
2018-12-08T23:53:42.041Z,97.70
2018-12-08T23:56:18.224Z,97.70
2018-12-08T23:58:51.912Z,97.70
